createdAt,value
2019-03-24T00:00:42.315Z,860.91
2019-03-24T00:01:42.293Z,860.92
2019-03-24T00:02:42.281Z,860.92
2019-03-24T00:03:42.270Z,860.97
2019-03-24T00:04:42.284Z,860.95
2019-03-24T00:05:42.249Z,860.93
2019-03-24T00:06:42.242Z,860.94
2019-03-24T00:07:42.229Z,860.97
2019-03-24T00:08:42.271Z,860.91
2019-03-24T00:09:42.227Z,860.91
2019-03-24T00:10:42.194Z,860.91
2019-03-24T00:11:42.202Z,860.90
2019-03-24T00:12:42.167Z,860.88
2019-03-24T00:13:42.158Z,860.91
2019-03-24T00:14:42.182Z,860.87
2019-03-24T00:15:42.159Z,860.89
2019-03-24T00:16:42.144Z,860.86
2019-03-24T00:17:42.114Z,860.92
2019-03-24T00:18:42.108Z,860.89
2019-03-24T00:19:42.094Z,860.88
2019-03-24T00:20:42.134Z,860.88
2019-03-24T00:21:42.079Z,860.87
2019-03-24T00:22:42.078Z,860.89
2019-03-24T00:23:42.048Z,860.84
2019-03-24T00:24:42.042Z,860.84
2019-03-24T00:25:42.047Z,860.87
2019-03-24T00:26:42.055Z,860.83
2019-03-24T00:27:42.011Z,860.85
2019-03-24T00:28:42.019Z,860.85
2019-03-24T00:29:41.982Z,860.85
2019-03-24T00:30:41.993Z,860.84
2019-03-24T00:31:41.984Z,860.81
2019-03-24T00:32:41.994Z,860.83
2019-03-24T00:33:41.939Z,860.82
2019-03-24T00:34:41.954Z,860.83
2019-03-24T00:35:41.918Z,860.82
2019-03-24T00:36:41.916Z,860.87
2019-03-24T00:37:41.926Z,860.84
2019-03-24T00:38:41.930Z,860.84
2019-03-24T00:39:41.889Z,860.80
2019-03-24T00:40:41.890Z,860.77
2019-03-24T00:41:41.858Z,860.76
2019-03-24T00:42:41.863Z,860.76
2019-03-24T00:43:41.842Z,860.76
2019-03-24T00:44:41.876Z,860.78
2019-03-24T00:45:41.817Z,860.76
2019-03-24T00:46:41.830Z,860.78
2019-03-24T00:47:41.795Z,860.72
2019-03-24T00:48:41.789Z,860.71
2019-03-24T00:49:41.774Z,860.74
2019-03-24T00:50:41.802Z,860.71
2019-03-24T00:51:41.754Z,860.75
2019-03-24T00:52:41.755Z,860.72
2019-03-24T00:53:41.727Z,860.74
2019-03-24T00:54:41.732Z,860.73
2019-03-24T00:55:41.710Z,860.72
2019-03-24T00:56:41.741Z,860.72
2019-03-24T00:57:41.710Z,860.70
2019-03-24T00:58:41.682Z,860.72
2019-03-24T00:59:41.673Z,860.69
2019-03-24T01:00:41.686Z,860.68
2019-03-24T01:01:41.681Z,860.66
2019-03-24T01:02:41.680Z,860.62
2019-03-24T01:03:41.632Z,860.56
2019-03-24T01:04:41.628Z,860.58
2019-03-24T01:05:41.597Z,860.63
2019-03-24T01:06:41.593Z,860.59
2019-03-24T01:07:41.584Z,860.59
2019-03-24T01:08:41.619Z,860.58
2019-03-24T01:09:41.584Z,860.60
2019-03-24T01:10:41.548Z,860.55
2019-03-24T01:11:41.546Z,860.55
2019-03-24T01:12:41.529Z,860.57
2019-03-24T01:13:41.518Z,860.56
2019-03-24T01:14:41.553Z,860.56
2019-03-24T01:15:47.719Z,860.54
2019-03-24T01:16:42.510Z,860.53
2019-03-24T01:17:41.469Z,860.58
2019-03-24T01:18:41.493Z,860.52
2019-03-24T01:19:41.491Z,860.46
2019-03-24T01:20:41.445Z,860.54
2019-03-24T01:21:41.430Z,860.48
2019-03-24T01:22:41.417Z,860.49
2019-03-24T01:23:41.407Z,860.49
2019-03-24T01:24:41.394Z,860.51
2019-03-24T01:25:56.066Z,860.49
2019-03-24T01:26:41.402Z,860.46
2019-03-24T01:27:41.368Z,860.45
2019-03-24T01:28:41.351Z,860.40
2019-03-24T01:29:41.353Z,860.40
2019-03-24T01:30:41.329Z,860.38
2019-03-24T01:31:41.365Z,860.38
2019-03-24T01:32:41.312Z,860.41
2019-03-24T01:33:41.299Z,860.38
2019-03-24T01:34:41.319Z,860.38
2019-03-24T01:35:41.281Z,860.34
2019-03-24T01:36:41.276Z,860.35
2019-03-24T01:37:41.300Z,860.35
2019-03-24T01:38:41.251Z,860.33
2019-03-24T01:39:41.235Z,860.34
2019-03-24T01:40:41.233Z,860.34
2019-03-24T01:41:41.216Z,860.34
2019-03-24T01:42:41.213Z,860.33
2019-03-24T01:43:41.239Z,860.30
2019-03-24T01:44:41.184Z,860.28
2019-03-24T01:45:41.179Z,860.34
2019-03-24T01:46:41.164Z,860.29
2019-03-24T01:47:41.147Z,860.30
2019-03-24T01:48:41.134Z,860.28
2019-03-24T01:49:41.166Z,860.30
2019-03-24T01:50:41.123Z,860.26
2019-03-24T01:51:41.107Z,860.26
2019-03-24T01:52:41.099Z,860.24
2019-03-24T01:53:41.086Z,860.25
2019-03-24T01:54:41.090Z,860.25
2019-03-24T01:55:41.108Z,860.24
2019-03-24T01:56:41.061Z,860.20
2019-03-24T01:57:41.045Z,860.20
2019-03-24T01:58:41.039Z,860.20
2019-03-24T01:59:41.027Z,860.17
2019-03-24T02:00:41.028Z,860.17
2019-03-24T02:01:41.040Z,860.14
2019-03-24T02:02:40.993Z,860.13
2019-03-24T02:03:40.977Z,860.12
2019-03-24T02:04:40.968Z,860.12
2019-03-24T02:05:40.966Z,860.14
2019-03-24T02:06:40.960Z,860.10
2019-03-24T02:07:40.971Z,860.05
2019-03-24T02:08:40.939Z,860.06
2019-03-24T02:09:40.952Z,860.04
2019-03-24T02:10:40.899Z,859.98
2019-03-24T02:11:40.891Z,860.00
2019-03-24T02:12:40.880Z,860.01
2019-03-24T02:13:40.884Z,859.98
2019-03-24T02:14:40.876Z,859.95
2019-03-24T02:15:40.897Z,859.94
2019-03-24T02:16:40.840Z,859.99
2019-03-24T02:17:40.831Z,859.96
2019-03-24T02:18:40.817Z,859.90
2019-03-24T02:19:40.807Z,859.92
2019-03-24T02:20:40.815Z,859.91
2019-03-24T02:21:40.830Z,859.89
2019-03-24T02:22:40.771Z,859.84
2019-03-24T02:23:40.765Z,859.88
2019-03-24T02:24:40.755Z,859.83
2019-03-24T02:25:40.743Z,859.88
2019-03-24T02:26:40.727Z,859.81
2019-03-24T02:27:40.774Z,859.86
2019-03-24T02:28:40.715Z,859.88
2019-03-24T02:29:40.712Z,859.81
2019-03-24T02:30:40.698Z,859.83
2019-03-24T02:31:40.681Z,859.84
2019-03-24T02:32:40.668Z,859.84
2019-03-24T02:33:40.743Z,859.86
2019-03-24T02:34:40.648Z,859.85
2019-03-24T02:35:40.634Z,859.87
2019-03-24T02:36:40.619Z,859.85
2019-03-24T02:37:40.618Z,859.84
2019-03-24T02:38:40.600Z,859.81
2019-03-24T02:39:40.636Z,859.83
2019-03-24T02:40:40.581Z,859.77
2019-03-24T02:41:40.607Z,859.79
2019-03-24T02:42:40.559Z,859.76
2019-03-24T02:43:40.551Z,859.80
2019-03-24T02:44:40.534Z,859.79
2019-03-24T02:45:40.530Z,859.75
2019-03-24T02:46:40.517Z,859.73
2019-03-24T02:47:40.537Z,859.76
2019-03-24T02:48:40.494Z,859.75
2019-03-24T02:49:40.486Z,859.73
2019-03-24T02:50:40.477Z,859.68
2019-03-24T02:51:40.467Z,859.67
2019-03-24T02:52:40.470Z,859.69
2019-03-24T02:53:40.471Z,859.70
2019-03-24T02:54:40.527Z,859.69
2019-03-24T02:55:40.427Z,859.70
2019-03-24T02:56:40.408Z,859.70
2019-03-24T02:57:40.399Z,859.69
2019-03-24T02:58:40.400Z,859.68
2019-03-24T02:59:40.385Z,859.64
2019-03-24T03:00:40.407Z,859.66
2019-03-24T03:01:40.351Z,859.64
2019-03-24T03:02:40.350Z,859.65
2019-03-24T03:03:40.331Z,859.66
2019-03-24T03:04:40.320Z,859.62
2019-03-24T03:05:40.319Z,859.62
2019-03-24T03:06:40.355Z,859.63
2019-03-24T03:07:40.308Z,859.66
2019-03-24T03:08:40.275Z,859.64
2019-03-24T03:09:40.275Z,859.66
2019-03-24T03:10:40.259Z,859.66
2019-03-24T03:11:40.278Z,859.66
2019-03-24T03:12:40.276Z,859.68
2019-03-24T03:13:40.226Z,859.63
2019-03-24T03:14:40.227Z,859.68
2019-03-24T03:15:40.211Z,859.66
2019-03-24T03:16:40.239Z,859.63
2019-03-24T03:17:40.187Z,859.69
2019-03-24T03:18:40.204Z,859.66
2019-03-24T03:19:40.167Z,859.64
2019-03-24T03:20:40.161Z,859.64
2019-03-24T03:21:40.140Z,859.63
2019-03-24T03:22:40.160Z,859.65
2019-03-24T03:23:40.124Z,859.66
2019-03-24T03:24:40.115Z,859.63
2019-03-24T03:25:40.094Z,859.63
2019-03-24T03:26:40.096Z,859.60
2019-03-24T03:27:40.118Z,859.62
2019-03-24T03:28:40.069Z,859.66
2019-03-24T03:29:40.052Z,859.63
2019-03-24T03:30:40.091Z,859.62
2019-03-24T03:31:40.029Z,859.65
2019-03-24T03:32:40.028Z,859.61
2019-03-24T03:33:40.044Z,859.61
2019-03-24T03:34:40.002Z,859.62
2019-03-24T03:35:39.999Z,859.60
2019-03-24T03:36:39.999Z,859.61
2019-03-24T03:37:39.969Z,859.63
2019-03-24T03:38:39.954Z,859.55
2019-03-24T03:39:39.997Z,859.58
2019-03-24T03:40:39.960Z,859.55
2019-03-24T03:41:39.933Z,859.57
2019-03-24T03:42:39.918Z,859.58
2019-03-24T03:43:39.906Z,859.51
2019-03-24T03:44:39.888Z,859.56
2019-03-24T03:45:39.922Z,859.51
2019-03-24T03:46:51.889Z,859.55
2019-03-24T03:47:40.864Z,859.55
2019-03-24T03:48:39.850Z,859.56
2019-03-24T03:49:39.842Z,859.57
2019-03-24T03:50:39.844Z,859.54
2019-03-24T03:51:39.852Z,859.55
2019-03-24T03:52:39.840Z,859.54
2019-03-24T03:53:39.796Z,859.53
2019-03-24T03:54:39.798Z,859.50
2019-03-24T03:55:39.783Z,859.55
2019-03-24T03:56:39.768Z,859.50
2019-03-24T03:57:39.794Z,859.54
2019-03-24T03:58:39.766Z,859.54
2019-03-24T03:59:39.726Z,859.53
2019-03-24T04:00:39.718Z,859.56
2019-03-24T04:01:39.713Z,859.52
2019-03-24T04:02:39.711Z,859.51
2019-03-24T04:03:39.740Z,859.51
2019-03-24T04:04:39.680Z,859.53
2019-03-24T04:05:39.663Z,859.52
2019-03-24T04:06:39.705Z,859.48
2019-03-24T04:07:39.639Z,859.51
2019-03-24T04:08:39.674Z,859.48
2019-03-24T04:09:39.692Z,859.51
2019-03-24T04:10:39.610Z,859.50
2019-03-24T04:11:39.613Z,859.49
2019-03-24T04:12:39.611Z,859.47
2019-03-24T04:13:39.583Z,859.44
2019-03-24T04:14:39.573Z,859.44
2019-03-24T04:15:39.615Z,859.44
2019-03-24T04:16:39.545Z,859.42
2019-03-24T04:17:39.540Z,859.44
2019-03-24T04:18:39.525Z,859.39
2019-03-24T04:19:39.508Z,859.42
2019-03-24T04:20:39.503Z,859.45
2019-03-24T04:21:39.564Z,859.38
2019-03-24T04:22:39.484Z,859.40
2019-03-24T04:23:39.471Z,859.40
2019-03-24T04:24:39.472Z,859.45
2019-03-24T04:25:39.521Z,859.43
2019-03-24T04:26:39.455Z,859.48
2019-03-24T04:27:39.424Z,859.47
2019-03-24T04:28:39.418Z,859.57
2019-03-24T04:29:39.424Z,859.49
2019-03-24T04:30:39.411Z,859.50
2019-03-24T04:31:39.431Z,859.45
2019-03-24T04:32:39.428Z,859.47
2019-03-24T04:33:39.360Z,859.51
2019-03-24T04:34:39.350Z,859.42
2019-03-24T04:35:39.349Z,859.44
2019-03-24T04:36:39.334Z,859.43
2019-03-24T04:37:39.319Z,859.44
2019-03-24T04:38:39.364Z,859.47
2019-03-24T04:39:39.306Z,859.46
2019-03-24T04:40:40.007Z,859.47
2019-03-24T04:41:39.620Z,859.45
2019-03-24T04:42:40.001Z,859.48
2019-03-24T04:43:39.261Z,859.46
2019-03-24T04:44:39.284Z,859.46
2019-03-24T04:45:39.241Z,859.43
2019-03-24T04:46:39.224Z,859.49
2019-03-24T04:47:39.212Z,859.41
2019-03-24T04:48:39.214Z,859.46
2019-03-24T04:49:39.207Z,859.42
2019-03-24T04:50:39.219Z,859.46
2019-03-24T04:51:39.166Z,859.48
2019-03-24T04:52:39.159Z,859.48
2019-03-24T04:53:39.146Z,859.42
2019-03-24T04:54:39.150Z,859.46
2019-03-24T04:55:39.135Z,859.48
2019-03-24T04:56:39.154Z,859.44
2019-03-24T04:57:39.144Z,859.46
2019-03-24T04:58:39.096Z,859.46
2019-03-24T04:59:39.095Z,859.46
2019-03-24T05:00:39.082Z,859.44
2019-03-24T05:01:39.062Z,859.46
2019-03-24T05:02:39.052Z,859.43
2019-03-24T05:03:39.073Z,859.45
2019-03-24T05:04:39.072Z,859.47
2019-03-24T05:05:39.020Z,859.47
2019-03-24T05:06:39.017Z,859.50
2019-03-24T05:07:39.000Z,859.50
2019-03-24T05:08:38.991Z,859.52
2019-03-24T05:09:39.007Z,859.49
2019-03-24T05:10:38.966Z,859.49
2019-03-24T05:11:38.958Z,859.44
2019-03-24T05:12:38.958Z,859.43
2019-03-24T05:13:38.937Z,859.47
2019-03-24T05:14:38.924Z,859.48
2019-03-24T05:15:38.952Z,859.44
2019-03-24T05:16:38.909Z,859.47
2019-03-24T05:17:38.893Z,859.55
2019-03-24T05:18:38.893Z,859.48
2019-03-24T05:19:38.870Z,859.51
2019-03-24T05:20:38.858Z,859.47
2019-03-24T05:21:38.893Z,859.51
2019-03-24T05:22:38.835Z,859.52
2019-03-24T05:23:38.836Z,859.44
2019-03-24T05:24:38.822Z,859.53
2019-03-24T05:25:38.805Z,859.60
2019-03-24T05:26:38.816Z,859.58
2019-03-24T05:27:38.822Z,859.59
2019-03-24T05:28:38.803Z,859.63
2019-03-24T05:29:38.759Z,859.61
2019-03-24T05:30:38.763Z,859.61
2019-03-24T05:31:38.776Z,859.58
2019-03-24T05:32:38.729Z,859.55
2019-03-24T05:33:38.725Z,859.57
2019-03-24T05:34:38.713Z,859.57
2019-03-24T05:35:38.702Z,859.57
2019-03-24T05:36:38.684Z,859.61
2019-03-24T05:37:38.709Z,859.59
2019-03-24T05:38:38.670Z,859.62
2019-03-24T05:39:38.650Z,859.68
2019-03-24T05:40:38.640Z,859.63
2019-03-24T05:41:38.636Z,859.65
2019-03-24T05:42:38.631Z,859.64
2019-03-24T05:43:38.655Z,859.57
2019-03-24T05:44:38.598Z,859.55
2019-03-24T05:45:38.622Z,859.61
2019-03-24T05:46:38.576Z,859.60
2019-03-24T05:47:38.568Z,859.57
2019-03-24T05:48:38.590Z,859.63
2019-03-24T05:49:38.547Z,859.62
2019-03-24T05:50:38.534Z,859.69
2019-03-24T05:51:38.571Z,859.65
2019-03-24T05:52:38.508Z,859.65
2019-03-24T05:53:38.509Z,859.62
2019-03-24T05:54:38.492Z,859.58
2019-03-24T05:55:38.486Z,859.67
2019-03-24T05:56:38.467Z,859.62
2019-03-24T05:57:38.494Z,859.65
2019-03-24T05:58:38.462Z,859.65
2019-03-24T05:59:38.436Z,859.56
2019-03-24T06:00:38.439Z,859.56
2019-03-24T06:01:38.436Z,859.50
2019-03-24T06:02:38.405Z,859.53
2019-03-24T06:03:38.429Z,859.53
2019-03-24T06:04:38.392Z,859.51
2019-03-24T06:05:38.372Z,859.55
2019-03-24T06:06:38.359Z,859.46
2019-03-24T06:07:38.364Z,859.49
2019-03-24T06:08:38.344Z,859.47
2019-03-24T06:09:38.371Z,859.52
2019-03-24T06:10:38.318Z,859.55
2019-03-24T06:11:38.320Z,859.55
2019-03-24T06:12:38.305Z,859.52
2019-03-24T06:13:38.286Z,859.56
2019-03-24T06:14:38.280Z,859.54
2019-03-24T06:15:38.308Z,859.52
2019-03-24T06:16:38.274Z,859.49
2019-03-24T06:17:47.328Z,859.57
2019-03-24T06:18:39.232Z,859.57
2019-03-24T06:19:38.233Z,859.54
2019-03-24T06:20:38.221Z,859.61
2019-03-24T06:21:38.245Z,859.55
2019-03-24T06:22:38.193Z,859.59
2019-03-24T06:23:38.180Z,859.55
2019-03-24T06:24:38.175Z,859.60
2019-03-24T06:25:38.180Z,859.55
2019-03-24T06:26:38.186Z,859.56
2019-03-24T06:27:38.137Z,859.53
2019-03-24T06:28:38.129Z,859.50
2019-03-24T06:29:38.120Z,859.51
2019-03-24T06:30:38.105Z,859.53
2019-03-24T06:31:38.098Z,859.52
2019-03-24T06:32:38.139Z,859.52
2019-03-24T06:33:38.077Z,859.56
2019-03-24T06:34:38.058Z,859.54
2019-03-24T06:35:38.056Z,859.49
2019-03-24T06:36:38.040Z,859.49
2019-03-24T06:37:38.029Z,859.51
2019-03-24T06:38:38.049Z,859.49
2019-03-24T06:39:38.050Z,859.47
2019-03-24T06:40:38.000Z,859.47
2019-03-24T06:41:37.987Z,859.45
2019-03-24T06:42:37.987Z,859.40
2019-03-24T06:43:37.963Z,859.37
2019-03-24T06:44:37.954Z,859.35
2019-03-24T06:45:37.983Z,859.40
2019-03-24T06:46:37.934Z,859.41
2019-03-24T06:47:37.927Z,859.37
2019-03-24T06:48:37.907Z,859.38
2019-03-24T06:49:37.905Z,859.34
2019-03-24T06:50:37.884Z,859.37
2019-03-24T06:51:37.918Z,859.34
2019-03-24T06:52:37.866Z,859.38
2019-03-24T06:53:37.864Z,859.42
2019-03-24T06:54:37.846Z,859.40
2019-03-24T06:55:37.838Z,859.40
2019-03-24T06:56:37.825Z,859.37
2019-03-24T06:57:37.850Z,859.37
2019-03-24T06:58:37.811Z,859.37
2019-03-24T06:59:37.811Z,859.39
2019-03-24T07:00:37.782Z,859.37
2019-03-24T07:01:37.770Z,859.34
2019-03-24T07:02:37.762Z,859.30
2019-03-24T07:03:37.789Z,859.33
2019-03-24T07:04:37.736Z,859.36
2019-03-24T07:05:37.736Z,859.31
2019-03-24T07:06:37.724Z,859.34
2019-03-24T07:07:37.708Z,859.35
2019-03-24T07:08:37.699Z,859.35
2019-03-24T07:09:37.720Z,859.33
2019-03-24T07:10:37.673Z,859.34
2019-03-24T07:11:37.664Z,859.33
2019-03-24T07:12:37.688Z,859.31
2019-03-24T07:13:37.751Z,859.35
2019-03-24T07:14:37.631Z,859.33
2019-03-24T07:15:37.652Z,859.33
2019-03-24T07:16:37.679Z,859.33
2019-03-24T07:17:37.783Z,859.28
2019-03-24T07:18:37.593Z,859.27
2019-03-24T07:19:37.574Z,859.34
2019-03-24T07:20:37.569Z,859.31
2019-03-24T07:21:37.592Z,859.34
2019-03-24T07:22:37.543Z,859.32
2019-03-24T07:23:37.532Z,859.31
2019-03-24T07:24:37.521Z,859.32
2019-03-24T07:25:37.514Z,859.26
2019-03-24T07:26:37.513Z,859.27
2019-03-24T07:27:37.550Z,859.26
2019-03-24T07:28:37.476Z,859.26
2019-03-24T07:29:37.496Z,859.29
2019-03-24T07:30:37.466Z,859.28
2019-03-24T07:31:37.466Z,859.28
2019-03-24T07:32:37.437Z,859.27
2019-03-24T07:33:37.461Z,859.24
2019-03-24T07:34:37.448Z,859.23
2019-03-24T07:35:37.422Z,859.25
2019-03-24T07:36:37.405Z,859.22
2019-03-24T07:37:37.393Z,859.17
2019-03-24T07:38:37.378Z,859.12
2019-03-24T07:39:37.400Z,859.18
2019-03-24T07:40:37.356Z,859.12
2019-03-24T07:41:37.340Z,859.17
2019-03-24T07:42:37.381Z,859.13
2019-03-24T07:43:37.322Z,859.11
2019-03-24T07:44:37.303Z,859.15
2019-03-24T07:45:37.331Z,859.12
2019-03-24T07:46:37.287Z,859.11
2019-03-24T07:47:37.274Z,859.14
2019-03-24T07:48:37.286Z,859.09
2019-03-24T07:49:37.251Z,859.09
2019-03-24T07:50:37.240Z,859.07
2019-03-24T07:51:37.274Z,859.06
2019-03-24T07:52:37.225Z,859.07
2019-03-24T07:53:37.211Z,859.07
2019-03-24T07:54:37.192Z,859.09
2019-03-24T07:55:37.193Z,859.08
2019-03-24T07:56:37.185Z,859.06
2019-03-24T07:57:37.202Z,859.05
2019-03-24T07:58:37.155Z,859.06
2019-03-24T07:59:37.156Z,859.04
2019-03-24T08:00:37.138Z,859.04
2019-03-24T08:01:37.128Z,858.99
2019-03-24T08:02:37.142Z,859.00
2019-03-24T08:03:37.141Z,858.98
2019-03-24T08:04:37.086Z,858.97
2019-03-24T08:05:37.085Z,858.99
2019-03-24T08:06:37.073Z,859.01
2019-03-24T08:07:37.058Z,858.98
2019-03-24T08:08:44.253Z,858.99
2019-03-24T08:09:38.072Z,858.94
2019-03-24T08:10:37.023Z,858.96
2019-03-24T08:11:37.022Z,858.99
2019-03-24T08:12:37.028Z,858.99
2019-03-24T08:13:36.998Z,858.96
2019-03-24T08:14:36.992Z,859.00
2019-03-24T08:15:37.015Z,858.97
2019-03-24T08:16:36.962Z,858.94
2019-03-24T08:17:36.949Z,858.90
2019-03-24T08:18:36.962Z,858.94
2019-03-24T08:19:36.924Z,858.92
2019-03-24T08:20:36.928Z,858.91
2019-03-24T08:21:36.954Z,858.97
2019-03-24T08:22:36.899Z,858.89
2019-03-24T08:23:36.879Z,858.86
2019-03-24T08:24:36.885Z,858.88
2019-03-24T08:25:36.877Z,858.88
2019-03-24T08:26:36.847Z,858.90
2019-03-24T08:27:36.883Z,858.87
2019-03-24T08:28:36.837Z,858.87
2019-03-24T08:29:36.818Z,858.86
2019-03-24T08:30:37.053Z,858.78
2019-03-24T08:31:37.071Z,858.83
2019-03-24T08:32:36.790Z,858.78
2019-03-24T08:33:36.820Z,858.82
2019-03-24T08:34:36.809Z,858.80
2019-03-24T08:35:36.766Z,858.78
2019-03-24T08:36:36.745Z,858.80
2019-03-24T08:37:36.736Z,858.79
2019-03-24T08:38:36.717Z,858.80
2019-03-24T08:39:36.755Z,858.82
2019-03-24T08:40:36.795Z,858.79
2019-03-24T08:41:38.728Z,858.80
2019-03-24T08:42:36.682Z,858.79
2019-03-24T08:43:36.701Z,858.80
2019-03-24T08:44:36.699Z,858.79
2019-03-24T08:45:36.699Z,858.83
2019-03-24T08:46:36.631Z,858.81
2019-03-24T08:47:36.638Z,858.77
2019-03-24T08:48:40.970Z,858.77
2019-03-24T08:49:36.617Z,858.75
2019-03-24T08:50:36.585Z,858.73
2019-03-24T08:51:36.627Z,858.76
2019-03-24T08:52:36.568Z,858.70
2019-03-24T08:53:36.569Z,858.71
2019-03-24T08:54:36.542Z,858.70
2019-03-24T08:55:36.657Z,858.70
2019-03-24T08:56:36.528Z,858.71
2019-03-24T08:57:36.561Z,858.72
2019-03-24T08:58:36.508Z,858.66
2019-03-24T08:59:36.490Z,858.69
2019-03-24T09:00:36.489Z,858.65
2019-03-24T09:01:36.496Z,858.66
2019-03-24T09:02:36.460Z,858.67
2019-03-24T09:03:36.482Z,858.68
2019-03-24T09:04:36.439Z,858.66
2019-03-24T09:05:36.465Z,858.62
2019-03-24T09:06:36.415Z,858.63
2019-03-24T09:07:36.972Z,858.64
2019-03-24T09:08:36.392Z,858.62
2019-03-24T09:09:36.415Z,858.63
2019-03-24T09:10:37.388Z,858.61
2019-03-24T09:11:36.353Z,858.59
2019-03-24T09:12:36.349Z,858.53
2019-03-24T09:13:36.336Z,858.59
2019-03-24T09:14:36.334Z,858.56
2019-03-24T09:15:36.375Z,858.51
2019-03-24T09:16:36.482Z,858.52
2019-03-24T09:17:36.368Z,858.53
2019-03-24T09:18:36.287Z,858.53
2019-03-24T09:19:36.294Z,858.48
2019-03-24T09:20:41.626Z,858.48
2019-03-24T09:21:37.444Z,858.51
2019-03-24T09:22:36.246Z,858.44
2019-03-24T09:23:36.228Z,858.39
2019-03-24T09:24:39.098Z,858.40
2019-03-24T09:25:36.287Z,858.43
2019-03-24T09:26:36.197Z,858.36
2019-03-24T09:27:36.206Z,858.35
2019-03-24T09:28:36.192Z,858.34
2019-03-24T09:29:37.071Z,858.35
2019-03-24T09:30:36.152Z,858.36
2019-03-24T09:31:36.175Z,858.39
2019-03-24T09:32:36.149Z,858.32
2019-03-24T09:33:36.142Z,858.35
2019-03-24T09:34:36.116Z,858.32
2019-03-24T09:35:36.094Z,858.34
2019-03-24T09:36:36.153Z,858.32
2019-03-24T09:37:36.092Z,858.30
2019-03-24T09:38:36.114Z,858.27
2019-03-24T09:39:36.071Z,858.25
2019-03-24T09:40:36.054Z,858.27
2019-03-24T09:41:36.178Z,858.31
2019-03-24T09:42:36.063Z,858.25
2019-03-24T09:43:36.052Z,858.25
2019-03-24T09:44:36.008Z,858.28
2019-03-24T09:45:39.252Z,858.26
2019-03-24T09:46:35.979Z,858.25
2019-03-24T09:47:35.969Z,858.22
2019-03-24T09:48:35.965Z,858.21
2019-03-24T09:49:35.945Z,858.24
2019-03-24T09:50:35.966Z,858.22
2019-03-24T09:51:35.965Z,858.21
2019-03-24T09:52:35.908Z,858.25
2019-03-24T09:53:35.926Z,858.22
2019-03-24T09:54:36.071Z,858.20
2019-03-24T09:55:35.887Z,858.15
2019-03-24T09:56:35.873Z,858.16
2019-03-24T09:57:35.890Z,858.19
2019-03-24T09:58:35.843Z,858.18
2019-03-24T09:59:35.914Z,858.18
2019-03-24T10:00:35.818Z,858.12
2019-03-24T10:01:35.828Z,858.21
2019-03-24T10:02:35.815Z,858.16
2019-03-24T10:03:35.864Z,858.20
2019-03-24T10:04:35.783Z,858.17
2019-03-24T10:05:35.829Z,858.15
2019-03-24T10:06:35.791Z,858.17
2019-03-24T10:07:35.769Z,858.19
2019-03-24T10:08:46.592Z,858.18
2019-03-24T10:09:36.725Z,858.15
2019-03-24T10:10:35.740Z,858.21
2019-03-24T10:11:35.775Z,858.17
2019-03-24T10:12:35.733Z,858.22
2019-03-24T10:13:35.679Z,858.11
2019-03-24T10:14:35.682Z,858.09
2019-03-24T10:15:35.698Z,858.14
2019-03-24T10:16:35.660Z,858.09
2019-03-24T10:17:35.681Z,858.11
2019-03-24T10:18:35.663Z,858.09
2019-03-24T10:19:35.633Z,858.11
2019-03-24T10:20:35.627Z,858.05
2019-03-24T10:21:35.615Z,858.09
2019-03-24T10:22:35.583Z,858.05
2019-03-24T10:23:36.322Z,858.06
2019-03-24T10:24:35.888Z,858.04
2019-03-24T10:25:36.113Z,858.09
2019-03-24T10:26:35.561Z,858.03
2019-03-24T10:27:35.818Z,858.05
2019-03-24T10:28:35.516Z,858.08
2019-03-24T10:29:35.540Z,858.06
2019-03-24T10:30:35.506Z,858.01
2019-03-24T10:31:35.484Z,858.00
2019-03-24T10:32:35.472Z,857.95
2019-03-24T10:33:35.463Z,858.02
2019-03-24T10:34:35.450Z,857.96
2019-03-24T10:35:35.650Z,857.96
2019-03-24T10:36:35.438Z,857.99
2019-03-24T10:37:37.317Z,857.96
2019-03-24T10:38:35.895Z,857.89
2019-03-24T10:39:35.401Z,857.94
2019-03-24T10:40:35.468Z,857.94
2019-03-24T10:41:36.886Z,857.94
2019-03-24T10:42:35.367Z,857.87
2019-03-24T10:43:37.584Z,857.85
2019-03-24T10:44:37.533Z,857.89
2019-03-24T10:45:35.963Z,857.82
2019-03-24T10:46:35.326Z,857.79
2019-03-24T10:47:35.351Z,857.78
2019-03-24T10:48:35.300Z,857.76
2019-03-24T10:49:35.292Z,857.77
2019-03-24T10:50:35.283Z,857.77
2019-03-24T10:51:35.923Z,857.79
2019-03-24T10:52:35.928Z,857.79
2019-03-24T10:53:35.287Z,857.76
2019-03-24T10:54:35.238Z,857.81
2019-03-24T10:55:35.225Z,857.80
2019-03-24T10:56:35.266Z,857.75
2019-03-24T10:57:35.204Z,857.78
2019-03-24T10:58:35.194Z,857.76
2019-03-24T10:59:35.183Z,857.78
2019-03-24T11:00:35.172Z,857.70
2019-03-24T11:01:35.171Z,857.74
2019-03-24T11:02:35.184Z,857.73
2019-03-24T11:03:35.140Z,857.77
2019-03-24T11:04:35.132Z,857.73
2019-03-24T11:05:35.120Z,857.78
2019-03-24T11:06:35.113Z,857.75
2019-03-24T11:07:35.100Z,857.73
2019-03-24T11:08:35.129Z,857.71
2019-03-24T11:09:35.077Z,857.73
2019-03-24T11:10:35.068Z,857.72
2019-03-24T11:11:35.064Z,857.73
2019-03-24T11:12:35.049Z,857.71
2019-03-24T11:13:35.033Z,857.66
2019-03-24T11:14:35.097Z,857.70
2019-03-24T11:15:35.011Z,857.64
2019-03-24T11:16:35.008Z,857.63
2019-03-24T11:17:34.987Z,857.61
2019-03-24T11:18:34.980Z,857.59
2019-03-24T11:19:35.944Z,857.60
2019-03-24T11:20:35.337Z,857.60
2019-03-24T11:21:42.281Z,857.60
2019-03-24T11:22:34.951Z,857.59
2019-03-24T11:23:34.922Z,857.54
2019-03-24T11:24:34.921Z,857.63
2019-03-24T11:25:34.906Z,857.54
2019-03-24T11:26:34.928Z,857.56
2019-03-24T11:27:34.896Z,857.54
2019-03-24T11:28:34.871Z,857.55
2019-03-24T11:29:34.857Z,857.52
2019-03-24T11:30:34.845Z,857.48
2019-03-24T11:31:34.875Z,857.55
2019-03-24T11:32:34.826Z,857.48
2019-03-24T11:33:34.822Z,857.49
2019-03-24T11:34:34.817Z,857.51
2019-03-24T11:35:34.797Z,857.48
2019-03-24T11:36:34.805Z,857.46
2019-03-24T11:37:34.823Z,857.45
2019-03-24T11:38:34.762Z,857.45
2019-03-24T11:39:34.779Z,857.38
2019-03-24T11:40:34.751Z,857.39
2019-03-24T11:41:34.730Z,857.38
2019-03-24T11:42:34.732Z,857.39
2019-03-24T11:43:34.746Z,857.36
2019-03-24T11:44:34.902Z,857.35
2019-03-24T11:45:34.713Z,857.37
2019-03-24T11:46:34.672Z,857.33
2019-03-24T11:47:34.660Z,857.35
2019-03-24T11:48:34.666Z,857.27
2019-03-24T11:49:34.700Z,857.30
2019-03-24T11:50:34.633Z,857.28
2019-03-24T11:51:34.634Z,857.28
2019-03-24T11:52:34.609Z,857.26
2019-03-24T11:53:34.595Z,857.24
2019-03-24T11:54:34.599Z,857.27
2019-03-24T11:55:34.597Z,857.22
2019-03-24T11:56:34.569Z,857.17
2019-03-24T11:57:34.573Z,857.23
2019-03-24T11:58:34.564Z,857.25
2019-03-24T11:59:34.532Z,857.20
2019-03-24T12:00:34.571Z,857.21
2019-03-24T12:01:38.518Z,857.17
2019-03-24T12:02:34.503Z,857.08
2019-03-24T12:03:34.561Z,857.11
2019-03-24T12:04:34.476Z,857.13
2019-03-24T12:05:34.476Z,857.07
2019-03-24T12:06:34.508Z,857.07
2019-03-24T12:07:34.474Z,857.06
2019-03-24T12:08:34.443Z,857.01
2019-03-24T12:09:34.454Z,857.01
2019-03-24T12:10:34.437Z,856.97
2019-03-24T12:11:34.402Z,856.94
2019-03-24T12:12:34.461Z,856.94
2019-03-24T12:13:34.411Z,856.99
2019-03-24T12:14:34.372Z,856.95
2019-03-24T12:15:34.374Z,856.93
2019-03-24T12:16:34.357Z,856.97
2019-03-24T12:17:34.342Z,856.89
2019-03-24T12:18:34.357Z,856.88
2019-03-24T12:19:34.353Z,856.84
2019-03-24T12:20:34.337Z,856.87
2019-03-24T12:21:34.330Z,856.88
2019-03-24T12:22:34.278Z,856.93
2019-03-24T12:23:34.273Z,856.89
2019-03-24T12:24:34.313Z,856.83
2019-03-24T12:25:34.264Z,856.86
2019-03-24T12:26:34.242Z,856.82
2019-03-24T12:27:34.243Z,856.86
2019-03-24T12:28:34.211Z,856.84